Time;durP1;ratioP1;P1;durP2;ratioP2;P2;SDS_P1;SDS_P2;PMS_P1;PMS_P2;Temp;Humidity;BMP_temperature;BMP_pressure;BME280_temperature;BME280_humidity;BME280_pressure;Samples;Min_cycle;Max_cycle;Signal;HPM_P1;HPM_P2
2024/02/05 00:00:36;;;;;;;34.10;5.85;;;;;;;9.35;100.00;101526.78;5007035;28;20090;-96
2024/02/05 00:03:01;;;;;;;24.45;3.65;;;;;;;9.37;100.00;101523.25;4994697;28;20038;-96
2024/02/05 00:05:37;;;;;;;;;;;;;;;;;;;;;
2024/02/05 00:08:07;;;;;;;29.38;4.57;;;;;;;9.38;100.00;101530.06;4997883;28;20030;-95
2024/02/05 00:10:33;;;;;;;21.58;3.90;;;;;;;9.35;100.00;101525.03;5012657;28;20441;-95
2024/02/05 00:12:58;;;;;;;29.08;4.03;;;;;;;9.43;100.00;101542.81;5011740;28;20026;-96
2024/02/05 00:15:24;;;;;;;40.40;4.38;;;;;;;9.40;100.00;101536.03;5011860;28;20108;-95
2024/02/05 00:17:50;;;;;;;24.67;3.85;;;;;;;9.34;100.00;101525.94;4999090;28;20089;-96
2024/02/05 00:20:16;;;;;;;28.58;5.03;;;;;;;9.37;100.00;101533.56;4972642;23;20047;-94
2024/02/05 00:22:42;;;;;;;27.85;4.10;;;;;;;9.49;100.00;101540.03;4919792;29;20019;-93
2024/02/05 00:25:08;;;;;;;22.55;4.13;;;;;;;9.47;100.00;101530.66;4920193;29;20040;-94
2024/02/05 00:27:33;;;;;;;24.58;5.78;;;;;;;9.39;100.00;101524.06;4919060;29;20035;-93
2024/02/05 00:29:58;;;;;;;30.38;5.60;;;;;;;9.44;100.00;101531.63;4920273;29;20031;-93
2024/02/05 00:32:24;;;;;;;23.27;4.15;;;;;;;9.56;100.00;101525.16;4936484;29;20060;-91
2024/02/05 00:34:49;;;;;;;25.65;5.63;;;;;;;9.59;100.00;101525.91;4935582;29;20356;-95
2024/02/05 00:37:14;;;;;;;29.88;5.13;;;;;;;9.56;100.00;101525.16;4919016;29;20027;-94
2024/02/05 00:39:40;;;;;;;30.85;4.75;;;;;;;9.47;100.00;101531.50;4919250;29;20489;-93
2024/02/05 00:42:05;;;;;;;16.90;3.53;;;;;;;9.50;100.00;101526.22;4936005;29;20039;-93
2024/02/05 00:44:31;;;;;;;22.60;4.43;;;;;;;9.47;100.00;101533.25;4935642;29;20482;-92
2024/02/05 00:46:57;;;;;;;25.15;4.72;;;;;;;9.41;100.00;101522.25;4919825;29;20434;-95
2024/02/05 00:49:42;;;;;;;;;;;;;;;;;;;;;
2024/02/05 00:52:10;;;;;;;25.17;4.70;;;;;;;9.31;100.00;101499.44;4938776;29;20038;-93
2024/02/05 00:54:36;;;;;;;22.92;4.15;;;;;;;9.33;100.00;101513.09;4919808;29;20515;-92
2024/02/05 00:57:03;;;;;;;21.40;4.03;;;;;;;9.28;100.00;101509.84;4919568;29;20051;-94
2024/02/05 00:59:28;;;;;;;31.10;4.10;;;;;;;9.29;100.00;101512.38;4919501;29;20028;-94
2024/02/05 01:01:54;;;;;;;32.42;5.32;;;;;;;9.23;100.00;101506.59;4919520;29;20038;-94
2024/02/05 01:04:19;;;;;;;24.33;3.58;;;;;;;9.34;100.00;101510.50;4919563;29;20028;-94
2024/02/05 01:06:44;;;;;;;21.67;4.03;;;;;;;9.35;100.00;101508.75;4918888;29;20032;-94
2024/02/05 01:09:10;;;;;;;25.35;5.13;;;;;;;9.42;100.00;101511.03;4918962;29;20020;-93
2024/02/05 01:11:36;;;;;;;29.92;4.68;;;;;;;9.32;100.00;101507.13;4919625;29;20433;-94
2024/02/05 01:14:03;;;;;;;20.23;3.85;;;;;;;9.31;100.00;101507.16;4936646;29;20092;-95
2024/02/05 01:16:29;;;;;;;26.80;4.97;;;;;;;9.29;100.00;101512.38;4920073;29;20576;-93
2024/02/05 01:18:54;;;;;;;19.15;3.72;;;;;;;9.33;100.00;101498.47;4920368;29;20055;-94
2024/02/05 01:21:20;;;;;;;23.35;4.22;;;;;;;9.27;100.00;101492.72;4918869;29;20030;-95
2024/02/05 01:23:46;;;;;;;29.40;4.13;;;;;;;9.23;100.00;101486.81;4918638;29;20549;-94
2024/02/05 01:26:11;;;;;;;21.88;4.20;;;;;;;9.27;100.00;101492.72;4919742;29;20031;-93
2024/02/05 01:28:37;;;;;;;23.73;5.55;;;;;;;9.22;100.00;101490.31;4919306;29;20032;-93
2024/02/05 01:31:06;;;;;;;22.45;4.13;;;;;;;9.19;100.00;101487.81;4919451;29;20023;-95
2024/02/05 01:33:32;;;;;;;23.88;3.35;;;;;;;9.18;100.00;101484.41;4919717;29;20031;-94
2024/02/05 01:35:57;;;;;;;31.80;4.90;;;;;;;9.17;100.00;101479.31;4936213;29;20031;-93
2024/02/05 01:38:22;;;;;;;20.05;5.47;;;;;;;9.20;100.00;101474.91;4917980;29;20028;-93
2024/02/05 01:40:49;;;;;;;22.80;4.55;;;;;;;9.05;100.00;101477.19;4935831;29;20028;-92
2024/02/05 01:43:16;;;;;;;21.58;3.75;;;;;;;9.19;100.00;101469.78;4935709;29;20028;-93
2024/02/05 01:45:42;;;;;;;27.67;3.78;;;;;;;9.04;100.00;101475.47;4919035;29;20063;-93
2024/02/05 01:48:08;;;;;;;22.05;4.28;;;;;;;9.07;100.00;101471.09;4918425;29;20482;-94
2024/02/05 01:50:37;;;;;;;19.15;4.75;;;;;;;9.20;100.00;101472.31;4934507;29;20072;-95
2024/02/05 01:53:04;;;;;;;24.73;4.43;;;;;;;9.10;100.00;101460.66;4919363;29;20027;-94
2024/02/05 01:55:31;;;;;;;33.25;5.10;;;;;;;9.09;100.00;101458.13;4919202;29;20104;-94
2024/02/05 01:57:57;;;;;;;23.83;3.63;;;;;;;9.20;100.00;101476.63;4919137;29;20059;-94
2024/02/05 02:00:24;;;;;;;19.67;4.22;;;;;;;9.12;100.00;101470.91;4936521;29;20027;-94
2024/02/05 02:02:50;;;;;;;22.30;4.32;;;;;;;9.19;100.00;101464.63;4917718;29;20189;-94
2024/02/05 02:05:17;;;;;;;21.30;5.28;;;;;;;9.02;100.00;101456.66;4918252;29;20075;-92
2024/02/05 02:07:42;;;;;;;33.03;4.10;;;;;;;9.08;100.00;101464.19;4935709;29;20545;-93
2024/02/05 02:10:09;;;;;;;29.65;4.55;;;;;;;9.05;100.00;101449.69;4918881;29;20122;-92
2024/02/05 02:12:34;;;;;;;23.83;4.13;;;;;;;9.14;100.00;101456.22;4918138;29;20023;-93
2024/02/05 02:15:00;;;;;;;22.17;4.32;;;;;;;8.99;100.00;101458.44;4918643;29;20036;-94
2024/02/05 02:17:28;;;;;;;27.25;5.05;;;;;;;9.06;100.00;101453.09;4917618;29;20019;-93
2024/02/05 02:19:54;;;;;;;24.55;4.60;;;;;;;8.99;100.00;101444.72;4917858;29;20055;-94
2024/02/05 02:22:36;;;;;;;24.80;5.22;;;;;;;8.97;100.00;101439.66;4919419;29;20089;-93
2024/02/05 02:25:02;;;;;;;16.23;3.67;;;;;;;8.95;100.00;101428.56;4918921;29;20078;-90
2024/02/05 02:27:28;;;;;;;22.17;4.30;;;;;;;9.02;100.00;101441.22;4918922;29;20036;-93
2024/02/05 02:29:54;;;;;;;21.20;4.53;;;;;;;8.99;100.00;101432.69;4918966;29;20504;-93
2024/02/05 02:32:35;;;;;;;25.60;4.10;;;;;;;9.07;100.00;101441.88;4917692;29;20028;-92
2024/02/05 02:35:07;;;;;;;27.13;4.85;;;;;;;9.08;100.00;101438.44;4918041;29;20042;-93
2024/02/05 02:37:40;;;;;;;22.75;4.50;;;;;;;8.99;100.00;101435.28;4918596;29;20165;-93
2024/02/05 02:40:13;;;;;;;25.98;5.20;;;;;;;9.01;100.00;101424.94;4934727;29;20032;-93
2024/02/05 02:42:40;;;;;;;20.60;4.95;;;;;;;8.98;100.00;101431.03;4935455;29;20035;-92
2024/02/05 02:45:08;;;;;;;21.73;4.07;;;;;;;8.97;100.00;101437.09;4918358;29;20528;-93
2024/02/05 02:47:33;;;;;;;21.55;4.57;;;;;;;8.92;100.00;101435.53;4935454;29;20057;-93
2024/02/05 02:49:59;;;;;;;23.02;4.20;;;;;;;8.93;100.00;101435.50;4935674;29;20461;-93
2024/02/05 02:52:24;;;;;;;26.42;4.20;;;;;;;8.97;100.00;101434.50;4918272;29;20537;-93
2024/02/05 02:54:49;;;;;;;23.08;4.88;;;;;;;9.03;100.00;101436.03;4934322;29;20032;-93
2024/02/05 02:57:15;;;;;;;26.48;5.53;;;;;;;8.99;100.00;101443.00;4917946;29;20151;-92
2024/02/05 02:59:40;;;;;;;26.10;4.32;;;;;;;9.02;100.00;101420.59;4917717;29;20028;-93
2024/02/05 03:02:06;;;;;;;27.13;3.85;;;;;;;8.94;100.00;101403.69;4935962;29;20362;-93
2024/02/05 03:04:31;;;;;;;24.52;4.22;;;;;;;9.12;100.00;101411.66;4946478;29;20485;-93
2024/02/05 03:06:56;;;;;;;32.65;5.82;;;;;;;8.97;100.00;101408.75;4918432;29;20407;-92
2024/02/05 03:09:23;;;;;;;29.30;4.30;;;;;;;8.96;100.00;101417.34;4919341;29;20024;-93
2024/02/05 03:11:49;;;;;;;24.42;6.38;;;;;;;8.94;100.00;101403.69;4917645;29;20048;-94
2024/02/05 03:14:14;;;;;;;30.02;4.47;;;;;;;8.88;100.00;101397.94;4917921;29;20142;-93
2024/02/05 03:16:40;;;;;;;16.42;4.03;;;;;;;8.95;100.00;101392.53;4917821;29;20030;-95
2024/02/05 03:19:05;;;;;;;24.48;5.45;;;;;;;8.97;100.00;101392.44;4917622;29;20032;-92
2024/02/05 03:21:30;;;;;;;24.05;4.70;;;;;;;8.96;100.00;101391.63;4917547;29;20066;-93
2024/02/05 03:23:56;;;;;;;30.02;4.72;;;;;;;9.03;100.00;101391.41;4917855;29;20028;-93
2024/02/05 03:26:21;;;;;;;26.88;4.57;;;;;;;8.83;100.00;101390.38;4919854;29;20030;-94
2024/02/05 03:28:47;;;;;;;23.08;4.95;;;;;;;8.86;100.00;101385.13;4919530;29;20481;-92
2024/02/05 03:31:13;;;;;;;20.95;4.07;;;;;;;8.87;100.00;101386.78;4937265;29;20496;-93
2024/02/05 03:33:38;;;;;;;18.25;4.43;;;;;;;8.83;100.00;101389.50;4921064;29;20043;-95
2024/02/05 03:36:04;;;;;;;18.60;4.47;;;;;;;8.90;100.00;101388.41;4921299;29;20027;-95
2024/02/05 03:38:29;;;;;;;26.48;5.97;;;;;;;8.93;100.00;101388.31;4921592;29;20490;-95
2024/02/05 03:40:55;;;;;;;24.58;4.72;;;;;;;8.81;100.00;101376.72;4921442;29;20023;-95
2024/02/05 03:43:20;;;;;;;22.40;4.68;;;;;;;8.79;100.00;101379.34;4920943;29;20055;-94
2024/02/05 03:45:46;;;;;;;19.42;5.78;;;;;;;8.74;100.00;101375.25;4921310;29;20055;-96
2024/02/05 03:48:12;;;;;;;16.52;4.60;;;;;;;8.73;100.00;101368.41;4921173;29;20116;-95
2024/02/05 03:50:37;;;;;;;31.20;4.68;;;;;;;8.69;100.00;101365.09;4921123;29;20058;-95
2024/02/05 03:53:03;;;;;;;23.10;4.65;;;;;;;8.70;100.00;101363.38;4921145;29;20110;-93
2024/02/05 03:55:28;;;;;;;19.52;4.43;;;;;;;8.76;100.00;101373.47;4921080;29;20444;-94
2024/02/05 03:58:03;;;;;;;29.15;5.80;;;;;;;8.82;100.00;101359.53;4937051;29;20556;-95
2024/02/05 04:00:28;;;;;;;25.15;4.85;;;;;;;8.86;100.00;101354.22;4921078;29;20040;-94
2024/02/05 04:02:54;;;;;;;28.85;6.13;;;;;;;8.82;100.00;101352.63;4920879;29;20035;-94
2024/02/05 04:05:19;;;;;;;20.50;3.60;;;;;;;8.77;100.00;101354.53;4920882;29;20050;-95
2024/02/05 04:07:45;;;;;;;20.65;4.60;;;;;;;8.82;100.00;101346.66;4920233;29;20068;-95
2024/02/05 04:10:10;;;;;;;17.05;4.13;;;;;;;8.77;100.00;101341.66;4920560;29;20086;-95
2024/02/05 04:12:36;;;;;;;20.08;4.03;;;;;;;8.85;100.00;101331.97;4921166;29;20031;-96
2024/02/05 04:15:02;;;;;;;26.25;4.22;;;;;;;8.82;100.00;101336.34;4920585;29;20118;-94
2024/02/05 04:17:27;;;;;;;16.15;4.65;;;;;;;8.93;100.00;101323.94;4937575;29;20497;-94
2024/02/05 04:19:53;;;;;;;19.98;5.43;;;;;;;8.86;100.00;101325.06;4920591;29;20049;-95
2024/02/05 04:22:18;;;;;;;23.75;4.60;;;;;;;8.88;100.00;101315.56;4919846;29;20024;-93
2024/02/05 04:24:44;;;;;;;33.80;5.20;;;;;;;8.83;100.00;101318.28;4920466;29;20032;-95
2024/02/05 04:27:09;;;;;;;26.85;5.13;;;;;;;8.89;100.00;101318.06;4920752;29;20031;-96
2024/02/05 04:29:35;;;;;;;23.58;4.40;;;;;;;8.93;100.00;101323.94;4920903;29;20060;-94
2024/02/05 04:32:01;;;;;;;26.83;4.40;;;;;;;8.92;100.00;101322.25;4920863;29;20497;-95
2024/02/05 04:34:28;;;;;;;24.88;6.97;;;;;;;8.87;100.00;101314.69;4920429;29;20039;-96
2024/02/05 04:36:54;;;;;;;22.48;4.63;;;;;;;8.92;100.00;101310.22;4920377;29;20034;-94
2024/02/05 04:39:20;;;;;;;29.58;4.78;;;;;;;8.82;100.00;101320.91;4918884;29;20020;-93
2024/02/05 04:41:46;;;;;;;28.42;6.38;;;;;;;8.84;100.00;101319.97;4919891;29;20477;-95
2024/02/05 04:44:11;;;;;;;21.10;5.40;;;;;;;8.82;100.00;101315.75;4919873;29;20041;-94
2024/02/05 04:46:36;;;;;;;32.58;5.32;;;;;;;8.82;100.00;101306.31;4920125;29;20027;-95
2024/02/05 04:49:02;;;;;;;18.90;3.95;;;;;;;8.81;100.00;101314.09;4919746;29;20023;-94
2024/02/05 04:51:28;;;;;;;26.60;5.78;;;;;;;8.72;100.00;101315.25;4920195;29;20063;-95
2024/02/05 04:53:54;;;;;;;26.63;4.50;;;;;;;8.63;100.00;101310.44;4919483;29;20383;-94
2024/02/05 04:56:20;;;;;;;28.45;7.20;;;;;;;8.57;100.00;101307.19;4919124;29;20035;-95
2024/02/05 04:58:45;;;;;;;20.60;4.57;;;;;;;8.65;100.00;101312.06;4919023;29;20496;-94
2024/02/05 05:01:11;;;;;;;28.58;6.63;;;;;;;8.70;100.00;101306.75;4920088;29;20028;-94
2024/02/05 05:03:36;;;;;;;27.35;4.45;;;;;;;8.74;100.00;101298.88;4919752;29;20118;-95
2024/02/05 05:06:02;;;;;;;25.60;5.80;;;;;;;8.69;100.00;101297.34;4920105;29;20031;-96
2024/02/05 05:08:28;;;;;;;25.80;4.38;;;;;;;8.64;100.00;101299.25;4919970;29;20024;-95
2024/02/05 05:10:53;;;;;;;27.65;5.25;;;;;;;8.72;100.00;101310.09;4919834;29;20032;-94
2024/02/05 05:13:19;;;;;;;20.50;4.38;;;;;;;8.66;100.00;101303.47;4918991;29;20024;-94
2024/02/05 05:15:46;;;;;;;27.55;4.28;;;;;;;8.64;100.00;101299.25;4919472;29;20390;-94
2024/02/05 05:18:11;;;;;;;25.83;4.20;;;;;;;8.74;100.00;101303.19;4919403;29;20126;-96
2024/02/05 05:20:38;;;;;;;20.15;4.30;;;;;;;8.65;100.00;101293.22;4919472;29;20123;-95
2024/02/05 05:23:03;;;;;;;29.92;5.43;;;;;;;8.70;100.00;101291.31;4919725;29;20462;-95
2024/02/05 05:25:29;;;;;;;22.75;4.65;;;;;;;8.75;100.00;101284.25;4919615;29;20055;-96
2024/02/05 05:27:54;;;;;;;19.60;4.22;;;;;;;8.72;100.00;101285.19;4916501;29;20034;-94
2024/02/05 05:30:19;;;;;;;21.42;5.18;;;;;;;8.71;100.00;101293.00;4918909;29;20478;-94
2024/02/05 05:32:45;;;;;;;20.20;4.90;;;;;;;8.66;100.00;101279.47;4919473;29;20118;-94
2024/02/05 05:35:10;;;;;;;26.38;4.97;;;;;;;8.63;100.00;101279.53;4918890;29;20039;-96
2024/02/05 05:37:36;;;;;;;24.83;4.25;;;;;;;8.62;100.00;101273.56;4919846;29;20028;-95
2024/02/05 05:40:01;;;;;;;25.80;4.50;;;;;;;8.66;100.00;101266.59;4919476;29;20032;-95
2024/02/05 05:42:26;;;;;;;31.75;6.70;;;;;;;8.61;100.00;101265.91;4919553;29;20023;-95
2024/02/05 05:44:52;;;;;;;19.10;4.40;;;;;;;8.69;100.00;101269.88;4918544;29;20339;-95
2024/02/05 05:47:19;;;;;;;24.92;4.00;;;;;;;8.68;100.00;101252.78;4919124;29;20039;-95
2024/02/05 05:49:44;;;;;;;28.17;5.75;;;;;;;8.60;100.00;101259.06;4918832;29;20490;-94
2024/02/05 05:52:09;;;;;;;26.95;6.45;;;;;;;8.61;100.00;101263.31;4919262;29;20035;-94
2024/02/05 05:54:35;;;;;;;29.48;5.07;;;;;;;8.65;100.00;101263.16;4917768;29;20035;-93
2024/02/05 05:57:00;;;;;;;25.58;4.40;;;;;;;8.62;100.00;101272.72;4919261;29;20027;-95
2024/02/05 05:59:26;;;;;;;20.42;5.25;;;;;;;8.69;100.00;101257.00;4919202;29;20035;-95
2024/02/05 06:01:51;;;;;;;19.85;5.00;;;;;;;8.65;100.00;101263.16;4919140;29;20038;-94
2024/02/05 06:04:17;;;;;;;24.25;4.93;;;;;;;8.50;100.00;101254.25;4919004;29;20031;-95
2024/02/05 06:06:42;;;;;;;18.27;4.25;;;;;;;8.54;100.00;101250.69;4919117;29;20059;-95
2024/02/05 06:09:08;;;;;;;26.50;4.05;;;;;;;8.55;100.00;101247.22;4918004;29;20031;-94
2024/02/05 06:11:34;;;;;;;23.20;3.97;;;;;;;8.65;100.00;101239.16;4919454;29;20031;-94
2024/02/05 06:14:00;;;;;;;21.15;4.80;;;;;;;8.64;100.00;101235.75;4918777;29;20044;-96
2024/02/05 06:16:25;;;;;;;17.55;4.05;;;;;;;8.60;100.00;101223.06;4918929;29;20028;-94
2024/02/05 06:18:50;;;;;;;22.20;6.30;;;;;;;8.56;100.00;101222.34;4918774;29;20028;-96
2024/02/05 06:21:16;;;;;;;25.17;4.65;;;;;;;8.53;100.00;101228.44;4918848;29;20382;-96
2024/02/05 06:23:42;;;;;;;20.88;4.05;;;;;;;8.51;100.00;101230.22;4917906;29;20083;-95
2024/02/05 06:26:09;;;;;;;25.13;3.17;;;;;;;8.57;100.00;101235.13;4919423;29;20506;-95
2024/02/05 06:28:34;;;;;;;19.23;3.88;;;;;;;8.56;100.00;101223.19;4918816;29;20027;-95
2024/02/05 06:31:00;;;;;;;16.48;3.55;;;;;;;8.50;100.00;101228.53;4919218;29;20035;-96
2024/02/05 06:33:25;;;;;;;30.27;3.58;;;;;;;8.46;100.00;101226.13;4918907;29;20098;-94
2024/02/05 06:35:51;;;;;;;21.42;4.40;;;;;;;8.38;100.00;101223.78;4918937;29;20038;-94
2024/02/05 06:38:16;;;;;;;27.60;3.75;;;;;;;8.47;100.00;101223.50;4918051;29;20043;-94
2024/02/05 06:40:41;;;;;;;20.20;2.92;;;;;;;8.44;100.00;101223.63;4919315;29;20485;-95
2024/02/05 06:43:07;;;;;;;24.85;3.75;;;;;;;8.45;100.00;101225.28;4919161;29;20031;-96
2024/02/05 06:45:36;;;;;;;24.13;3.50;;;;;;;8.48;100.00;101232.06;4919394;29;20075;-95
2024/02/05 06:48:03;;;;;;;22.60;4.15;;;;;;;8.45;100.00;101230.44;4918898;29;20038;-95
2024/02/05 06:50:28;;;;;;;19.75;3.40;;;;;;;8.60;100.00;101217.91;4919286;29;20111;-94
2024/02/05 06:52:54;;;;;;;16.48;3.58;;;;;;;8.50;100.00;101210.53;4918753;29;20063;-95
2024/02/05 06:55:19;;;;;;;11.77;3.08;;;;;;;8.48;100.00;101207.16;4918334;29;20028;-95
2024/02/05 06:57:44;;;;;;;18.13;2.58;;;;;;;8.58;100.00;101212.81;4918474;29;20050;-95
2024/02/05 07:00:12;;;;;;;14.90;2.58;;;;;;;8.56;100.00;101202.59;4918980;29;20035;-94
2024/02/05 07:02:38;;;;;;;14.82;3.22;;;;;;;8.53;100.00;101197.56;4922464;29;20023;-95
2024/02/05 07:05:03;;;;;;;13.85;2.35;;;;;;;8.52;100.00;101206.16;4922912;29;20026;-95
2024/02/05 07:07:29;;;;;;;9.20;1.50;;;;;;;8.53;100.00;101201.84;4922586;29;20031;-95
2024/02/05 07:09:54;;;;;;;12.48;3.03;;;;;;;8.57;100.00;101199.09;4922844;29;20083;-95
2024/02/05 07:12:20;;;;;;;10.50;2.60;;;;;;;8.56;100.00;101197.44;4922545;29;20016;-94
2024/02/05 07:14:45;;;;;;;7.97;1.23;;;;;;;8.65;100.00;101191.09;4921695;29;20041;-94
2024/02/05 07:17:14;;;;;;;11.50;0.85;;;;;;;8.64;100.00;101186.03;4922504;29;20122;-94
2024/02/05 07:19:39;;;;;;;6.10;1.10;;;;;;;8.55;100.00;101189.78;4924862;29;20032;-94
2024/02/05 07:22:06;;;;;;;5.93;0.90;;;;;;;8.62;100.00;101190.38;4922076;29;20450;-94
2024/02/05 07:24:31;;;;;;;4.85;0.63;;;;;;;8.55;100.00;101190.59;4922045;29;20031;-95
2024/02/05 07:26:56;;;;;;;2.22;0.45;;;;;;;8.51;100.00;101186.50;4939105;29;20035;-95
2024/02/05 07:29:22;;;;;;;7.47;0.68;;;;;;;8.57;100.00;101188.81;4920767;29;20027;-94
2024/02/05 07:31:47;;;;;;;1.95;0.30;;;;;;;8.49;100.00;101175.41;4921657;29;20167;-94
2024/02/05 07:34:13;;;;;;;0.88;0.30;;;;;;;8.52;100.00;101174.44;4921359;29;20036;-93
2024/02/05 07:36:38;;;;;;;2.33;0.57;;;;;;;8.51;100.00;101178.78;4937910;29;20031;-95
2024/02/05 07:39:07;;;;;;;1.13;0.30;;;;;;;8.56;100.00;101183.75;4921635;29;20122;-95
2024/02/05 07:41:33;;;;;;;3.13;1.10;;;;;;;8.60;100.00;101187.03;4921572;29;20163;-93
2024/02/05 07:43:58;;;;;;;2.72;0.30;;;;;;;8.67;100.00;101188.47;4921581;29;20118;-93
2024/02/05 07:46:24;;;;;;;1.23;0.30;;;;;;;8.61;100.00;101174.13;4921504;29;20493;-93
2024/02/05 07:48:52;;;;;;;2.22;0.38;;;;;;;8.61;100.00;101170.69;4920729;29;20027;-94
2024/02/05 07:51:18;;;;;;;4.35;0.40;;;;;;;8.56;100.00;101171.72;4923080;29;20028;-94
2024/02/05 07:53:49;;;;;;;3.40;0.40;;;;;;;8.65;100.00;101179.97;4938750;29;21967;-96
2024/02/05 07:58:50;;;;;;;6.68;0.82;;;;;;;8.63;100.00;101169.72;5076941;23;20046;-94
2024/02/05 08:01:16;;;;;;;3.13;0.75;;;;;;;8.56;100.00;101179.44;4995511;28;20097;-94
2024/02/05 08:03:41;;;;;;;18.85;1.73;;;;;;;8.64;100.00;101178.31;4996495;28;20376;-94
2024/02/05 08:06:07;;;;;;;2.85;1.13;;;;;;;8.64;100.00;101168.03;4996419;28;20042;-96
2024/02/05 08:08:33;;;;;;;3.40;0.40;;;;;;;8.65;100.00;101159.38;4995648;28;20029;-92
2024/02/05 08:10:59;;;;;;;3.28;0.50;;;;;;;8.65;100.00;101160.22;4993535;28;20029;-93
2024/02/05 08:13:24;;;;;;;4.68;0.60;;;;;;;8.76;100.00;101155.50;4994169;28;20448;-93
2024/02/05 08:15:49;;;;;;;2.55;0.40;;;;;;;8.69;100.00;101150.66;4993828;28;20396;-92
2024/02/05 08:18:15;;;;;;;2.53;0.25;;;;;;;8.78;100.00;101150.31;4982984;28;20113;-93
2024/02/05 08:20:40;;;;;;;1.38;0.40;;;;;;;8.78;100.00;101155.47;4991036;28;20488;-93
2024/02/05 08:23:07;;;;;;;1.77;0.30;;;;;;;8.70;100.00;101152.31;4974396;28;20054;-93
2024/02/05 08:25:33;;;;;;;5.57;1.42;;;;;;;8.70;100.00;101163.47;4974424;28;20117;-94
2024/02/05 08:27:59;;;;;;;2.78;0.30;;;;;;;8.76;100.00;101157.25;4972406;28;20063;-94
2024/02/05 08:30:25;;;;;;;3.53;0.20;;;;;;;8.73;100.00;101141.91;4958026;28;20031;-93
2024/02/05 08:32:50;;;;;;;1.92;0.43;;;;;;;8.75;100.00;101147.84;4980943;28;20027;-95
2024/02/05 08:35:15;;;;;;;0.95;0.20;;;;;;;8.79;100.00;101146.84;4955470;28;20085;-93
2024/02/05 08:37:41;;;;;;;6.78;0.40;;;;;;;8.84;100.00;101144.91;4955627;28;20074;-92
2024/02/05 08:40:08;;;;;;;2.90;0.30;;;;;;;8.87;100.00;101154.25;4956461;28;20030;-93
2024/02/05 08:42:33;;;;;;;2.03;0.43;;;;;;;8.92;100.00;101154.91;4972414;28;20023;-93
2024/02/05 08:44:59;;;;;;;0.38;0.13;;;;;;;8.90;100.00;101149.84;4959894;28;20169;-93
2024/02/05 08:47:25;;;;;;;2.72;0.40;;;;;;;8.83;100.00;101148.41;4973316;28;20101;-94
2024/02/05 08:49:51;;;;;;;3.08;0.40;;;;;;;8.93;100.00;101136.84;4973515;28;20062;-93
2024/02/05 08:52:16;;;;;;;0.82;0.20;;;;;;;9.08;100.00;101137.13;4973845;28;20047;-94
2024/02/05 08:54:41;;;;;;;2.17;0.20;;;;;;;8.97;100.00;101140.97;4973977;28;20031;-93
2024/02/05 08:57:10;;;;;;;1.02;0.50;;;;;;;9.03;100.00;101123.63;4974240;28;20026;-93
2024/02/05 08:59:35;;;;;;;0.13;0.10;;;;;;;8.96;100.00;101118.69;4974255;28;20102;-93
2024/02/05 09:02:01;;;;;;;0.20;0.10;;;;;;;9.09;100.00;101120.78;4971069;28;20556;-93
2024/02/05 09:04:26;;;;;;;0.50;0.20;;;;;;;8.95;100.00;101117.03;4966206;28;20034;-94
2024/02/05 09:06:52;;;;;;;0.00;0.00;;;;;;;9.10;100.00;101114.75;4967301;28;20432;-93
2024/02/05 09:09:18;;;;;;;3.83;0.45;;;;;;;9.08;100.00;101112.22;4968972;28;20110;-94
2024/02/05 09:11:44;;;;;;;0.43;0.10;;;;;;;9.11;100.00;101103.53;4968919;28;20027;-95
2024/02/05 09:14:09;;;;;;;1.90;0.20;;;;;;;9.20;100.00;101116.03;4968048;28;20038;-92
2024/02/05 09:16:35;;;;;;;0.20;0.10;;;;;;;9.25;100.00;101115.84;4968538;28;20035;-94
2024/02/05 09:19:01;;;;;;;0.93;0.30;;;;;;;9.14;100.00;101116.28;4968262;28;20034;-93
2024/02/05 09:21:26;;;;;;;1.20;0.30;;;;;;;9.11;100.00;101116.41;4970724;28;20035;-94
2024/02/05 09:23:51;;;;;;;0.17;0.10;;;;;;;9.20;100.00;101121.19;4967166;28;20034;-90
2024/02/05 09:26:17;;;;;;;0.50;0.30;;;;;;;9.22;100.00;101114.25;4969852;28;20038;-94
2024/02/05 09:28:44;;;;;;;1.02;0.10;;;;;;;9.22;100.00;101116.81;4968488;28;20062;-96
2024/02/05 09:31:10;;;;;;;0.57;0.20;;;;;;;9.24;100.00;101112.41;4966181;28;20039;-93
2024/02/05 09:33:35;;;;;;;0.22;0.05;;;;;;;9.26;100.00;101118.34;4968261;28;20528;-93
2024/02/05 09:36:00;;;;;;;2.00;0.25;;;;;;;9.31;100.00;101123.31;4967432;28;20109;-93
2024/02/05 09:38:26;;;;;;;1.10;0.20;;;;;;;9.22;100.00;101119.41;4967682;28;20031;-91
2024/02/05 09:41:03;;;;;;;1.38;0.30;;;;;;;9.27;100.00;101125.19;4968626;28;20065;-93
2024/02/05 09:43:28;;;;;;;0.95;0.10;;;;;;;9.19;100.00;101119.50;4970249;28;20509;-95
2024/02/05 09:46:03;;;;;;;1.05;0.20;;;;;;;9.17;100.00;101113.59;4969238;28;20035;-95
2024/02/05 09:48:33;;;;;;;0.30;0.30;;;;;;;9.35;100.00;101117.97;4970188;28;20384;-95
2024/02/05 09:51:00;;;;;;;1.60;0.50;;;;;;;9.46;100.00;101108.94;4971590;28;20035;-94
2024/02/05 09:53:26;;;;;;;0.50;0.25;;;;;;;9.44;100.00;101109.03;4974276;28;20030;-96
2024/02/05 09:55:52;;;;;;;4.50;2.17;;;;;;;9.51;100.00;101109.59;4976970;28;20034;-94
2024/02/05 09:58:18;;;;;;;2.53;1.40;;;;;;;9.59;100.00;101108.38;4970456;28;20111;-94
2024/02/05 10:00:45;;;;;;;3.03;1.23;;;;;;;9.55;100.00;101100.84;4965522;28;20026;-89
2024/02/05 10:03:15;;;;;;;0.73;0.17;;;;;;;9.59;100.00;101104.97;4965977;28;20050;-92
2024/02/05 10:05:40;;;;;;;1.13;0.17;;;;;;;9.58;100.00;101100.69;4968831;28;20117;-95
2024/02/05 10:08:06;;;;;;;0.68;0.60;;;;;;;9.54;100.00;101104.34;4968692;28;20041;-94
2024/02/05 10:10:33;;;;;;;0.47;0.10;;;;;;;9.69;100.00;101098.50;4966350;28;20109;-94
2024/02/05 10:12:59;;;;;;;3.55;0.30;;;;;;;9.67;100.00;101095.16;4967149;28;20117;-94
2024/02/05 10:15:25;;;;;;;0.68;0.20;;;;;;;9.67;100.00;101094.34;4966154;28;20120;-94
2024/02/05 10:17:50;;;;;;;1.15;0.10;;;;;;;9.70;100.00;101079.56;4966580;28;20026;-94
2024/02/05 10:20:16;;;;;;;0.85;0.38;;;;;;;9.48;100.00;101077.06;4968327;28;20480;-94
2024/02/05 10:22:49;;;;;;;0.70;0.20;;;;;;;9.77;100.00;101075.81;4969095;28;20050;-93
2024/02/05 10:25:15;;;;;;;0.70;0.20;;;;;;;9.83;100.00;101080.72;4969606;28;20435;-94
2024/02/05 10:27:42;;;;;;;2.22;0.30;;;;;;;9.77;100.00;101080.97;4970370;28;20034;-95
2024/02/05 10:30:08;;;;;;;0.73;0.20;;;;;;;9.88;100.00;101082.25;4970530;28;20030;-94
2024/02/05 10:32:33;;;;;;;1.25;0.20;;;;;;;9.84;100.00;101091.84;4968594;28;20023;-90
2024/02/05 10:34:59;;;;;;;1.35;0.30;;;;;;;9.79;100.00;101074.00;4967981;28;20491;-91
2024/02/05 10:37:25;;;;;;;0.50;0.10;;;;;;;9.96;100.00;101082.75;4972193;28;20058;-93
2024/02/05 10:39:50;;;;;;;1.60;0.20;;;;;;;10.03;100.00;101076.41;4970399;28;20113;-95
2024/02/05 10:42:16;;;;;;;0.30;0.10;;;;;;;10.13;100.00;101071.66;4971542;28;20077;-95
2024/02/05 10:44:42;;;;;;;0.43;0.20;;;;;;;10.18;100.00;101075.72;4972181;28;20031;-94
2024/02/05 10:47:12;;;;;;;0.20;0.20;;;;;;;10.18;100.00;101070.53;4977351;28;20018;-96
2024/02/05 10:49:38;;;;;;;1.35;0.55;;;;;;;10.18;100.00;101070.53;4976664;28;20027;-95
2024/02/05 10:52:05;;;;;;;0.45;0.10;;;;;;;10.23;100.00;101072.91;4973799;28;20103;-95
2024/02/05 10:54:33;;;;;;;0.40;0.10;;;;;;;10.28;100.00;101076.97;4974089;28;20027;-94
2024/02/05 10:56:59;;;;;;;0.82;0.15;;;;;;;10.19;100.00;101061.91;4975282;28;20058;-94
2024/02/05 10:59:25;;;;;;;0.20;0.10;;;;;;;10.32;100.00;101071.72;4971758;28;20484;-94
2024/02/05 11:02:05;;;;;;;0.75;0.20;;;;;;;10.32;100.00;101067.38;4972954;28;20029;-95
2024/02/05 11:04:32;;;;;;;1.65;0.20;;;;;;;10.16;100.00;101053.47;4973392;28;20045;-95
2024/02/05 11:07:00;;;;;;;0.52;0.50;;;;;;;10.28;100.00;101061.50;4973800;28;20073;-95
2024/02/05 11:09:26;;;;;;;1.50;0.13;;;;;;;10.34;100.00;101044.06;4978061;28;20034;-95
2024/02/05 11:12:01;;;;;;;0.77;0.13;;;;;;;10.41;100.00;101043.72;4977623;28;20019;-95
2024/02/05 11:14:29;;;;;;;0.52;0.10;;;;;;;10.37;100.00;101049.09;4970918;28;20034;-96
2024/02/05 11:16:55;;;;;;;0.15;0.00;;;;;;;10.41;100.00;101040.28;4973612;28;20019;-94
2024/02/05 11:19:22;;;;;;;0.43;0.10;;;;;;;10.36;100.00;101040.50;4971323;28;20055;-95